Time;durP1;ratioP1;P1;durP2;ratioP2;P2;SDS_P1;SDS_P2;PMS_P1;PMS_P2;Temp;Humidity;BMP_temperature;BMP_pressure;BME280_temperature;BME280_humidity;BME280_pressure;Samples;Min_cycle;Max_cycle;Signal;HPM_P1;HPM_P2
2020/12/26 00:01:19;;;;;;;9.20;2.30;;;4.90;99.90;;;;;;5059598;28;20332;-79
2020/12/26 00:03:46;;;;;;;7.75;2.05;;;4.80;99.90;;;;;;5078014;28;20670;-79
2020/12/26 00:06:15;;;;;;;7.07;3.17;;;4.90;99.90;;;;;;5077683;28;20180;-79
2020/12/26 00:08:42;;;;;;;2.45;2.05;;;4.70;99.90;;;;;;5059753;28;20651;-78
2020/12/26 00:11:10;;;;;;;6.03;2.28;;;4.80;99.90;;;;;;5076931;28;20226;-79
2020/12/26 00:13:36;;;;;;;1.95;1.23;;;4.90;99.90;;;;;;5075823;28;20194;-79
2020/12/26 00:16:09;;;;;;;3.67;2.35;;;4.80;99.90;;;;;;5077556;28;20530;-79
2020/12/26 00:18:35;;;;;;;3.45;1.60;;;4.60;99.90;;;;;;5075801;28;20191;-78
2020/12/26 00:21:05;;;;;;;2.47;1.55;;;4.70;99.90;;;;;;5077027;28;20183;-81
2020/12/26 00:23:30;;;;;;;3.13;2.22;;;4.70;99.90;;;;;;5058958;28;20176;-79
2020/12/26 00:25:56;;;;;;;1.80;1.30;;;4.70;99.90;;;;;;5076921;28;20230;-79
2020/12/26 00:28:22;;;;;;;6.63;2.10;;;4.50;99.90;;;;;;5077540;28;20179;-79
2020/12/26 00:30:47;;;;;;;2.20;1.53;;;4.50;99.90;;;;;;5077494;28;20302;-79
2020/12/26 00:33:13;;;;;;;2.93;1.63;;;4.70;99.90;;;;;;5077369;28;20176;-78
2020/12/26 00:35:39;;;;;;;3.47;1.73;;;4.70;99.90;;;;;;5058594;28;20196;-79
2020/12/26 00:38:05;;;;;;;6.10;2.43;;;4.70;99.90;;;;;;5077268;28;20165;-79
2020/12/26 00:40:30;;;;;;;6.40;2.20;;;4.70;99.90;;;;;;5076995;28;20414;-78
2020/12/26 00:42:56;;;;;;;4.50;1.67;;;4.60;99.90;;;;;;5076880;28;20472;-79
2020/12/26 00:45:22;;;;;;;4.40;2.10;;;4.60;99.90;;;;;;5076766;28;20215;-78
2020/12/26 00:47:47;;;;;;;5.53;1.80;;;4.40;99.90;;;;;;5059408;28;20270;-78
2020/12/26 00:50:13;;;;;;;5.83;2.47;;;4.40;99.90;;;;;;5058362;28;20190;-78
2020/12/26 00:52:39;;;;;;;3.40;2.28;;;4.40;99.90;;;;;;5076496;28;20172;-80
2020/12/26 00:55:05;;;;;;;2.43;2.23;;;4.40;99.90;;;;;;5076129;28;20318;-78
2020/12/26 00:57:33;;;;;;;3.20;2.23;;;4.40;99.90;;;;;;5075608;28;20414;-79
2020/12/26 00:59:59;;;;;;;7.40;2.55;;;4.30;99.90;;;;;;5061401;28;20202;-79
2020/12/26 01:02:25;;;;;;;8.63;2.87;;;4.50;99.90;;;;;;5062766;28;20231;-79
2020/12/26 01:04:50;;;;;;;7.70;2.60;;;4.40;99.90;;;;;;5057879;28;20235;-79
2020/12/26 01:07:16;;;;;;;2.77;1.90;;;4.40;99.90;;;;;;5075174;28;20406;-79
2020/12/26 01:09:41;;;;;;;2.37;1.93;;;4.60;99.90;;;;;;5057586;28;20229;-79
2020/12/26 01:12:07;;;;;;;1.67;1.57;;;4.70;99.90;;;;;;5075015;28;20226;-80
2020/12/26 01:14:33;;;;;;;2.17;1.73;;;4.60;99.90;;;;;;5057284;28;20544;-79
2020/12/26 01:16:58;;;;;;;2.33;1.50;;;4.70;99.90;;;;;;5074783;28;20168;-79
2020/12/26 01:19:27;;;;;;;2.03;1.47;;;4.70;99.90;;;;;;5058198;28;20183;-78
2020/12/26 01:21:53;;;;;;;3.33;1.95;;;4.50;99.90;;;;;;5075039;28;20164;-80
2020/12/26 01:24:19;;;;;;;4.47;2.55;;;4.30;99.90;;;;;;5039684;28;20196;-78
2020/12/26 01:26:49;;;;;;;3.92;1.95;;;4.30;99.90;;;;;;5056613;28;20196;-79
2020/12/26 01:29:15;;;;;;;5.57;2.03;;;4.40;99.90;;;;;;5074960;28;20550;-79
2020/12/26 01:31:52;;;;;;;1.75;1.60;;;4.50;99.90;;;;;;5074615;28;20207;-79
2020/12/26 01:34:21;;;;;;;2.47;1.70;;;4.40;99.90;;;;;;5057157;28;20253;-79
2020/12/26 01:36:50;;;;;;;4.50;2.53;;;4.50;99.90;;;;;;5057488;28;20175;-79
2020/12/26 01:39:20;;;;;;;4.40;2.28;;;4.60;99.90;;;;;;5074967;28;20161;-79
2020/12/26 01:41:55;;;;;;;6.65;2.08;;;4.70;99.90;;;;;;5074668;28;20174;-78
2020/12/26 01:44:25;;;;;;;1.90;1.60;;;4.60;99.90;;;;;;5075649;28;20640;-80
2020/12/26 01:46:51;;;;;;;2.45;1.90;;;4.50;99.90;;;;;;5075703;28;20270;-79
2020/12/26 01:49:19;;;;;;;4.43;1.83;;;4.40;99.90;;;;;;5057485;28;20206;-78
2020/12/26 01:51:45;;;;;;;3.70;1.70;;;4.40;99.90;;;;;;5074583;28;20200;-78
2020/12/26 01:54:13;;;;;;;2.60;1.83;;;4.40;99.90;;;;;;5074193;28;20195;-78
2020/12/26 01:56:40;;;;;;;2.55;1.55;;;4.30;99.90;;;;;;5073247;28;20445;-79
2020/12/26 01:59:06;;;;;;;3.50;2.20;;;4.40;99.90;;;;;;5072832;28;20180;-79
2020/12/26 02:01:36;;;;;;;3.17;2.38;;;4.50;99.90;;;;;;5057130;28;20543;-78
2020/12/26 02:04:03;;;;;;;4.78;2.33;;;4.50;99.90;;;;;;5057318;28;20256;-80
2020/12/26 02:06:48;;;;;;;4.10;2.03;;;4.40;99.90;;;;;;5074975;28;20164;-79
2020/12/26 02:09:15;;;;;;;1.73;1.50;;;4.50;99.90;;;;;;5073303;28;20243;-79
2020/12/26 02:11:42;;;;;;;4.53;1.75;;;4.40;99.90;;;;;;5056584;28;20221;-79
2020/12/26 02:14:07;;;;;;;5.13;2.00;;;4.50;99.90;;;;;;5075084;28;20192;-79
2020/12/26 02:16:47;;;;;;;3.53;1.92;;;4.20;99.90;;;;;;5074691;28;20499;-79
2020/12/26 02:19:14;;;;;;;3.75;1.75;;;4.30;99.90;;;;;;5074649;28;20255;-78
2020/12/26 02:21:40;;;;;;;2.95;2.10;;;4.40;99.90;;;;;;5074512;28;20168;-78
2020/12/26 02:24:07;;;;;;;3.75;1.98;;;4.40;99.90;;;;;;5074606;28;20187;-78
2020/12/26 02:26:33;;;;;;;3.45;2.03;;;4.40;99.90;;;;;;5073220;28;20620;-78
2020/12/26 02:28:59;;;;;;;1.90;1.70;;;4.40;99.90;;;;;;5039424;28;20176;-79
2020/12/26 02:31:24;;;;;;;2.75;1.85;;;4.40;99.90;;;;;;5073924;28;20545;-78
2020/12/26 02:33:50;;;;;;;4.07;1.40;;;4.60;99.90;;;;;;5074667;28;20259;-78
2020/12/26 02:36:17;;;;;;;3.70;1.77;;;4.50;99.90;;;;;;5074194;28;20247;-78
2020/12/26 02:38:43;;;;;;;2.45;1.88;;;4.50;99.90;;;;;;5074438;28;20175;-79
2020/12/26 02:41:08;;;;;;;2.25;1.55;;;4.50;99.90;;;;;;5056679;28;20168;-79
2020/12/26 02:43:34;;;;;;;4.90;1.77;;;4.50;99.90;;;;;;5074096;28;20211;-80
2020/12/26 02:46:00;;;;;;;2.03;1.60;;;4.50;99.90;;;;;;5073876;28;20421;-78
2020/12/26 02:48:30;;;;;;;1.77;1.57;;;4.50;99.90;;;;;;5056234;28;20342;-78
2020/12/26 02:50:56;;;;;;;2.70;1.20;;;4.40;99.90;;;;;;5056163;28;20288;-79
2020/12/26 02:53:22;;;;;;;3.28;1.73;;;4.40;99.90;;;;;;5073952;28;20171;-78
2020/12/26 02:55:48;;;;;;;2.80;1.80;;;4.40;99.90;;;;;;5073599;28;20164;-78
2020/12/26 02:58:14;;;;;;;3.10;2.80;;;4.40;99.90;;;;;;5073383;28;20183;-79
2020/12/26 03:00:40;;;;;;;2.27;2.07;;;4.30;99.90;;;;;;5074437;28;20176;-79
2020/12/26 03:03:06;;;;;;;1.98;1.45;;;4.50;99.90;;;;;;5075392;28;20747;-78
2020/12/26 03:05:32;;;;;;;2.13;1.77;;;4.50;99.90;;;;;;5074346;28;20211;-79
2020/12/26 03:08:01;;;;;;;3.53;1.90;;;4.60;99.90;;;;;;5075961;28;20564;-78
2020/12/26 03:10:27;;;;;;;4.85;1.70;;;4.60;99.90;;;;;;5060205;28;20179;-80
2020/12/26 03:12:52;;;;;;;1.95;1.85;;;4.60;99.90;;;;;;5075090;28;20169;-79
2020/12/26 03:15:18;;;;;;;5.03;1.93;;;4.60;99.90;;;;;;5073617;28;20192;-79
2020/12/26 03:17:44;;;;;;;3.00;1.33;;;4.60;99.90;;;;;;5074246;28;20182;-79
2020/12/26 03:20:09;;;;;;;1.63;1.23;;;4.50;99.90;;;;;;5056354;28;20176;-79
2020/12/26 03:22:35;;;;;;;3.20;2.00;;;4.40;99.90;;;;;;5072393;28;20191;-79
2020/12/26 03:25:01;;;;;;;3.80;1.67;;;4.50;99.90;;;;;;5073828;28;20281;-77
2020/12/26 03:27:27;;;;;;;3.10;1.60;;;4.60;99.90;;;;;;5073939;28;20307;-78
2020/12/26 03:29:54;;;;;;;2.80;1.40;;;4.60;99.90;;;;;;5055961;28;20422;-79
2020/12/26 03:32:21;;;;;;;1.63;1.50;;;4.50;99.90;;;;;;5074057;28;20482;-79
2020/12/26 03:34:47;;;;;;;2.08;1.90;;;4.40;99.90;;;;;;5073246;28;20773;-78
2020/12/26 03:37:15;;;;;;;1.83;1.40;;;4.50;99.90;;;;;;5055710;28;20263;-78
2020/12/26 03:39:41;;;;;;;2.35;1.50;;;4.50;99.90;;;;;;5074089;28;20414;-78
2020/12/26 03:42:09;;;;;;;1.50;1.40;;;4.50;99.90;;;;;;5073606;28;20211;-79
2020/12/26 03:44:36;;;;;;;3.85;1.60;;;4.50;99.90;;;;;;5074062;28;20233;-79
2020/12/26 03:47:04;;;;;;;2.53;1.35;;;4.60;99.90;;;;;;5055909;28;20200;-79
2020/12/26 03:49:30;;;;;;;1.40;1.15;;;4.50;99.90;;;;;;5055818;28;20203;-78
2020/12/26 03:51:56;;;;;;;3.13;1.70;;;4.50;99.90;;;;;;5055681;28;20222;-78
2020/12/26 03:54:21;;;;;;;1.30;1.20;;;4.60;99.90;;;;;;5072522;28;20185;-78
2020/12/26 03:56:48;;;;;;;2.10;1.50;;;4.60;99.90;;;;;;5073098;28;20164;-78
2020/12/26 03:59:13;;;;;;;2.63;1.30;;;4.60;99.90;;;;;;5077476;28;20921;-78
2020/12/26 04:01:39;;;;;;;3.10;1.63;;;4.60;99.90;;;;;;5075617;28;20247;-79
2020/12/26 04:04:05;;;;;;;2.10;1.40;;;4.40;99.90;;;;;;5077817;28;20196;-79
2020/12/26 04:06:31;;;;;;;2.60;1.60;;;4.50;99.90;;;;;;5077553;28;20173;-78
2020/12/26 04:08:57;;;;;;;1.98;1.50;;;4.50;99.90;;;;;;5076878;28;20187;-79
2020/12/26 04:11:23;;;;;;;3.87;1.67;;;4.50;99.90;;;;;;5076380;28;20303;-78
2020/12/26 04:13:48;;;;;;;1.35;1.10;;;4.50;99.90;;;;;;5079961;28;20188;-79
2020/12/26 04:16:14;;;;;;;4.77;1.47;;;4.40;99.90;;;;;;5076914;28;20180;-79
2020/12/26 04:18:40;;;;;;;1.70;1.60;;;4.40;99.90;;;;;;5059498;28;20255;-79
2020/12/26 04:21:06;;;;;;;5.93;1.77;;;4.40;99.90;;;;;;5076000;28;20532;-79
2020/12/26 04:23:33;;;;;;;1.40;1.15;;;4.40;99.90;;;;;;5076831;28;20176;-79
2020/12/26 04:25:59;;;;;;;2.58;1.30;;;4.20;99.90;;;;;;5076397;28;20180;-79
2020/12/26 04:28:25;;;;;;;2.10;1.23;;;4.20;99.90;;;;;;5076725;28;20175;-78
2020/12/26 04:30:50;;;;;;;4.27;1.53;;;4.30;99.90;;;;;;5075744;28;20207;-78
2020/12/26 04:33:16;;;;;;;1.80;1.50;;;4.30;99.90;;;;;;5059194;28;20381;-79
2020/12/26 04:35:42;;;;;;;4.87;1.40;;;4.40;99.90;;;;;;5076337;28;20226;-78
2020/12/26 04:38:07;;;;;;;1.73;1.30;;;4.40;99.90;;;;;;5075848;28;20172;-79
2020/12/26 04:40:33;;;;;;;1.73;1.20;;;4.50;99.90;;;;;;5076112;28;20176;-79
2020/12/26 04:42:59;;;;;;;5.03;1.88;;;4.50;99.90;;;;;;5057649;28;20179;-79
2020/12/26 04:45:25;;;;;;;2.07;1.60;;;4.40;99.90;;;;;;5058123;28;20195;-79
2020/12/26 04:48:02;;;;;;;7.82;1.50;;;4.40;99.90;;;;;;5058013;28;20651;-79
2020/12/26 04:50:32;;;;;;;4.95;1.35;;;4.40;99.90;;;;;;5073957;28;20198;-79
2020/12/26 04:53:00;;;;;;;1.20;1.00;;;4.50;99.90;;;;;;5057714;28;20160;-79
2020/12/26 04:55:28;;;;;;;1.92;1.02;;;4.50;99.90;;;;;;5057761;28;20210;-78
2020/12/26 04:58:10;;;;;;;1.30;1.00;;;4.50;99.90;;;;;;5040370;28;20585;-79
2020/12/26 05:00:37;;;;;;;3.50;1.70;;;4.20;99.90;;;;;;5075250;28;20172;-78
2020/12/26 05:03:10;;;;;;;2.20;1.40;;;4.20;99.90;;;;;;5074982;28;20214;-79
2020/12/26 05:05:38;;;;;;;3.67;1.52;;;4.30;99.90;;;;;;5074953;28;20279;-79
2020/12/26 05:08:15;;;;;;;1.20;1.10;;;4.30;99.90;;;;;;5056642;28;20203;-78
2020/12/26 05:10:42;;;;;;;5.53;1.55;;;4.30;99.90;;;;;;5073972;28;20199;-79
2020/12/26 05:13:11;;;;;;;2.45;1.45;;;4.20;99.90;;;;;;5040663;28;20172;-79
2020/12/26 05:15:37;;;;;;;4.30;0.98;;;4.20;99.90;;;;;;5076601;28;20188;-78
2020/12/26 05:18:04;;;;;;;2.00;1.60;;;4.10;99.90;;;;;;5077089;28;20176;-78
2020/12/26 05:20:30;;;;;;;3.28;2.17;;;4.00;99.90;;;;;;5073043;28;20222;-79
2020/12/26 05:23:15;;;;;;;2.23;1.73;;;4.10;99.90;;;;;;5073348;28;20168;-79
2020/12/26 05:25:42;;;;;;;1.90;1.27;;;4.10;99.90;;;;;;5074666;28;20241;-79
2020/12/26 05:28:13;;;;;;;4.15;1.48;;;4.00;99.90;;;;;;5074843;28;20168;-79
2020/12/26 05:30:40;;;;;;;2.10;1.20;;;3.70;99.90;;;;;;5073760;28;20203;-79
2020/12/26 05:33:07;;;;;;;2.08;1.40;;;3.80;99.90;;;;;;5074308;28;20526;-78
2020/12/26 05:35:38;;;;;;;2.63;1.25;;;3.80;99.90;;;;;;5073166;28;20416;-79
2020/12/26 05:38:13;;;;;;;1.90;1.70;;;3.80;99.90;;;;;;5076156;28;20175;-79
2020/12/26 05:40:52;;;;;;;3.42;1.40;;;3.80;99.90;;;;;;5074422;28;20650;-78
2020/12/26 05:43:20;;;;;;;1.63;1.10;;;3.80;99.90;;;;;;5074278;28;20184;-78
2020/12/26 05:45:46;;;;;;;2.22;1.33;;;3.80;99.90;;;;;;5075174;28;20164;-79
2020/12/26 05:48:18;;;;;;;4.28;1.50;;;3.90;99.90;;;;;;5074497;28;20176;-78
2020/12/26 05:50:44;;;;;;;3.15;1.75;;;3.90;99.90;;;;;;5055839;28;20192;-79
2020/12/26 05:53:15;;;;;;;1.40;1.15;;;3.80;99.90;;;;;;5074542;28;20169;-79
2020/12/26 05:55:46;;;;;;;3.38;1.45;;;3.70;99.90;;;;;;5073945;28;20254;-78
2020/12/26 05:58:13;;;;;;;2.78;1.65;;;3.60;99.90;;;;;;5072746;28;20171;-79
2020/12/26 06:00:42;;;;;;;2.65;2.00;;;3.40;99.90;;;;;;5074105;28;20646;-79
2020/12/26 06:03:21;;;;;;;2.70;1.33;;;3.40;99.90;;;;;;5055592;28;20719;-79
2020/12/26 06:05:54;;;;;;;2.15;1.65;;;3.50;99.90;;;;;;5076506;28;20172;-78
2020/12/26 06:08:20;;;;;;;3.72;1.73;;;3.60;99.90;;;;;;5057012;28;20599;-79
2020/12/26 06:11:13;;;;;;;3.17;1.30;;;3.60;99.90;;;;;;5040788;28;20200;-78
2020/12/26 06:13:40;;;;;;;3.58;1.85;;;3.70;99.90;;;;;;5073091;28;20249;-79
2020/12/26 06:16:09;;;;;;;2.05;1.63;;;3.80;99.90;;;;;;5075561;28;20183;-78
2020/12/26 06:18:46;;;;;;;7.03;2.05;;;3.70;99.90;;;;;;5075394;28;20168;-78
2020/12/26 06:21:13;;;;;;;2.65;2.45;;;3.80;99.90;;;;;;5075476;28;20164;-79
2020/12/26 06:23:40;;;;;;;3.40;2.00;;;3.70;99.90;;;;;;5059979;28;20341;-79
2020/12/26 06:26:06;;;;;;;2.55;1.92;;;3.70;99.90;;;;;;5074816;28;20187;-79
2020/12/26 06:28:34;;;;;;;2.15;1.63;;;3.70;99.90;;;;;;5074727;28;20176;-78
2020/12/26 06:31:08;;;;;;;4.55;2.38;;;3.80;99.90;;;;;;5074053;28;20203;-79
2020/12/26 06:33:44;;;;;;;2.90;2.30;;;3.70;99.90;;;;;;5040842;28;20175;-79
2020/12/26 06:36:11;;;;;;;4.35;2.13;;;3.60;99.90;;;;;;5057390;28;20713;-80
2020/12/26 06:38:38;;;;;;;5.32;2.63;;;3.60;99.90;;;;;;5075343;28;20164;-78
2020/12/26 06:41:03;;;;;;;5.35;2.20;;;3.50;99.90;;;;;;5073382;28;20211;-79
2020/12/26 06:43:55;;;;;;;5.13;2.30;;;3.50;99.90;;;;;;5074981;28;20193;-78
2020/12/26 06:46:23;;;;;;;9.23;2.60;;;3.20;99.90;;;;;;5056724;28;20516;-79
2020/12/26 06:48:50;;;;;;;3.22;2.88;;;3.20;99.90;;;;;;5075023;28;20168;-79
2020/12/26 06:51:28;;;;;;;3.53;2.70;;;3.10;99.90;;;;;;5074454;28;20217;-78
2020/12/26 06:53:56;;;;;;;5.47;3.40;;;3.20;99.90;;;;;;5075682;28;20643;-79
2020/12/26 06:56:34;;;;;;;6.10;3.33;;;3.10;99.90;;;;;;5056948;28;20255;-78
2020/12/26 06:59:02;;;;;;;4.30;2.90;;;3.10;99.90;;;;;;5072948;28;20646;-79
2020/12/26 07:01:29;;;;;;;8.77;3.60;;;3.20;99.90;;;;;;5073419;28;20176;-79
2020/12/26 07:04:17;;;;;;;6.40;3.40;;;3.20;99.90;;;;;;5074936;28;20187;-79
2020/12/26 07:06:53;;;;;;;8.95;3.35;;;3.10;99.90;;;;;;5057262;28;20172;-78
2020/12/26 07:09:39;;;;;;;3.08;2.47;;;3.20;99.90;;;;;;5075590;28;20190;-79
2020/12/26 07:12:07;;;;;;;3.30;2.90;;;3.20;99.90;;;;;;5067068;28;20204;-78
2020/12/26 07:14:33;;;;;;;4.53;2.90;;;3.20;99.90;;;;;;5074577;28;20187;-78
2020/12/26 07:17:00;;;;;;;4.68;3.95;;;3.00;99.90;;;;;;5075071;28;20188;-79
2020/12/26 07:19:45;;;;;;;8.20;4.18;;;2.80;99.90;;;;;;5074843;28;20249;-76
2020/12/26 07:22:21;;;;;;;8.30;4.03;;;2.50;99.90;;;;;;5057534;28;20176;-79
2020/12/26 07:24:48;;;;;;;8.25;4.60;;;2.80;99.90;;;;;;5078820;28;20196;-80
2020/12/26 07:27:19;;;;;;;7.63;4.82;;;3.00;99.90;;;;;;5078798;28;20175;-79
2020/12/26 07:30:08;;;;;;;4.68;3.97;;;3.00;99.90;;;;;;5074625;28;20245;-79
2020/12/26 07:35:07;;;;;;;9.23;5.18;;;2.40;99.90;;;;;;5078105;28;20209;-78
2020/12/26 07:37:33;;;;;;;5.90;3.72;;;2.20;99.90;;;;;;5077949;28;20230;-78
2020/12/26 07:39:59;;;;;;;16.65;5.32;;;2.10;99.90;;;;;;5043885;28;20192;-79
2020/12/26 07:42:26;;;;;;;9.67;4.97;;;2.00;99.90;;;;;;5060466;28;20651;-78
2020/12/26 07:44:53;;;;;;;18.50;5.40;;;2.20;99.90;;;;;;5078314;28;20787;-79
2020/12/26 07:47:18;;;;;;;5.57;4.78;;;2.40;99.90;;;;;;5078225;28;20541;-79
2020/12/26 07:49:59;;;;;;;12.83;6.20;;;2.50;99.90;;;;;;5078540;28;20187;-79
2020/12/26 07:52:25;;;;;;;9.77;5.10;;;2.70;99.90;;;;;;5077358;28;20321;-80
2020/12/26 07:55:01;;;;;;;12.02;6.13;;;2.60;99.90;;;;;;5078151;28;20323;-80
2020/12/26 07:57:27;;;;;;;7.63;4.32;;;2.40;99.90;;;;;;5078321;28;20174;-78
2020/12/26 07:59:53;;;;;;;8.93;5.50;;;2.60;99.90;;;;;;5077692;28;20180;-80
2020/12/26 08:02:19;;;;;;;14.77;7.30;;;2.80;99.90;;;;;;5059901;28;20262;-80
2020/12/26 08:04:46;;;;;;;13.05;6.57;;;2.90;99.90;;;;;;5078022;28;20207;-80
2020/12/26 08:07:17;;;;;;;10.68;5.25;;;3.10;99.90;;;;;;5060945;28;20322;-80
2020/12/26 08:09:54;;;;;;;9.75;5.05;;;3.10;99.90;;;;;;5078484;28;20176;-81
2020/12/26 08:12:21;;;;;;;9.32;6.03;;;3.20;99.90;;;;;;5060190;28;20278;-80
2020/12/26 08:15:00;;;;;;;14.32;7.25;;;3.30;99.90;;;;;;5060853;28;20245;-79
2020/12/26 08:17:27;;;;;;;13.57;6.03;;;3.40;99.90;;;;;;5077714;28;20164;-80
2020/12/26 08:20:01;;;;;;;11.10;6.30;;;3.30;99.90;;;;;;5078072;28;20168;-79
2020/12/26 08:22:27;;;;;;;10.05;6.22;;;3.00;99.90;;;;;;5078338;28;20171;-81
2020/12/26 08:25:04;;;;;;;12.90;6.43;;;3.00;99.90;;;;;;5059734;28;20212;-81
2020/12/26 08:27:31;;;;;;;22.75;6.18;;;2.90;99.90;;;;;;5077970;28;20168;-82
2020/12/26 08:30:04;;;;;;;12.82;6.45;;;2.80;99.90;;;;;;5064085;28;20172;-79
2020/12/26 08:32:36;;;;;;;12.40;6.68;;;2.50;99.90;;;;;;5078420;28;20192;-79
2020/12/26 08:35:03;;;;;;;8.43;5.00;;;2.70;99.90;;;;;;5078716;28;20195;-81
2020/12/26 08:37:41;;;;;;;10.20;5.80;;;2.80;99.90;;;;;;5078556;28;20168;-80
2020/12/26 08:40:14;;;;;;;14.07;7.07;;;3.00;99.90;;;;;;5078379;28;20179;-80
2020/12/26 08:42:40;;;;;;;10.25;6.18;;;2.80;99.90;;;;;;5078751;28;20160;-79
2020/12/26 08:45:32;;;;;;;12.90;7.57;;;2.50;99.90;;;;;;5062227;28;20203;-79
2020/12/26 08:48:01;;;;;;;14.27;7.32;;;2.50;99.90;;;;;;5080217;28;20411;-82
2020/12/26 08:50:28;;;;;;;9.93;5.30;;;2.40;99.90;;;;;;5080852;28;20164;-81
2020/12/26 08:53:05;;;;;;;12.82;6.47;;;2.40;99.90;;;;;;5080074;28;20187;-80
2020/12/26 08:55:31;;;;;;;12.45;6.63;;;2.60;99.90;;;;;;5061700;28;20188;-78
2020/12/26 08:57:58;;;;;;;10.90;5.40;;;2.80;99.90;;;;;;5079371;28;20215;-81
2020/12/26 09:00:24;;;;;;;10.88;5.28;;;2.90;99.90;;;;;;5078313;28;20169;-79
2020/12/26 09:02:51;;;;;;;10.48;6.20;;;3.10;99.90;;;;;;5078584;28;20176;-82
2020/12/26 09:05:31;;;;;;;11.13;6.38;;;3.00;99.90;;;;;;5081167;28;20188;-80
2020/12/26 09:08:07;;;;;;;14.70;7.35;;;3.30;99.90;;;;;;5079922;28;20619;-80
2020/12/26 09:10:34;;;;;;;11.48;5.70;;;3.30;99.90;;;;;;5079072;28;20262;-80
2020/12/26 09:13:08;;;;;;;14.48;8.00;;;3.50;99.90;;;;;;5080186;28;20164;-79
2020/12/26 09:15:53;;;;;;;18.25;7.70;;;3.40;99.90;;;;;;5079936;28;20211;-80
2020/12/26 09:18:26;;;;;;;9.25;6.30;;;3.60;99.90;;;;;;5079281;28;20168;-80
2020/12/26 09:20:57;;;;;;;13.23;6.45;;;3.70;99.90;;;;;;5079277;28;20176;-79
2020/12/26 09:23:24;;;;;;;15.18;7.70;;;3.80;99.90;;;;;;5079566;28;20187;-80
2020/12/26 09:25:50;;;;;;;17.75;8.95;;;3.70;99.90;;;;;;5061021;28;20196;-80
2020/12/26 09:28:18;;;;;;;10.60;6.07;;;3.80;99.90;;;;;;5045760;28;20592;-82
2020/12/26 09:30:44;;;;;;;13.27;7.13;;;4.00;99.90;;;;;;5080287;28;20200;-80
2020/12/26 09:33:11;;;;;;;16.38;7.18;;;4.00;99.90;;;;;;5062240;28;20651;-80
2020/12/26 09:35:36;;;;;;;13.25;8.07;;;4.10;99.90;;;;;;5064137;28;20184;-80
2020/12/26 09:38:02;;;;;;;14.83;7.80;;;4.10;99.90;;;;;;5079178;28;20200;-80
2020/12/26 09:40:33;;;;;;;11.38;7.60;;;4.20;99.90;;;;;;5080409;28;20243;-81
2020/12/26 09:42:59;;;;;;;14.75;7.95;;;4.10;99.90;;;;;;5062203;28;20595;-79
2020/12/26 09:45:25;;;;;;;11.43;8.13;;;4.00;99.90;;;;;;5082014;28;20229;-79
2020/12/26 09:48:00;;;;;;;16.05;7.38;;;4.00;99.90;;;;;;5080023;28;20459;-80
2020/12/26 09:50:26;;;;;;;14.35;8.45;;;3.80;99.90;;;;;;5062158;28;20176;-79
2020/12/26 09:52:52;;;;;;;15.80;8.00;;;3.80;99.90;;;;;;5078792;28;20681;-80
2020/12/26 09:55:17;;;;;;;20.40;6.20;;;4.00;99.90;;;;;;5061229;28;20200;-79
2020/12/26 09:57:43;;;;;;;9.63;7.30;;;4.20;99.90;;;;;;5061373;28;20418;-79
2020/12/26 10:00:09;;;;;;;9.60;7.20;;;4.30;99.90;;;;;;5077933;28;20565;-80
2020/12/26 10:02:35;;;;;;;8.07;6.33;;;4.30;99.90;;;;;;5078735;28;20199;-79
2020/12/26 10:05:04;;;;;;;15.20;7.00;;;4.20;99.90;;;;;;5078362;28;20438;-80
2020/12/26 10:07:32;;;;;;;17.67;7.68;;;4.20;99.90;;;;;;5078675;28;20548;-78
2020/12/26 10:09:57;;;;;;;9.68;6.65;;;4.30;99.90;;;;;;5077749;28;20773;-80
2020/12/26 10:12:23;;;;;;;12.17;6.97;;;4.00;99.90;;;;;;5077496;28;20235;-78
2020/12/26 10:14:49;;;;;;;10.77;6.37;;;3.70;99.90;;;;;;5061323;28;20525;-80
2020/12/26 10:17:14;;;;;;;8.77;6.70;;;3.90;99.90;;;;;;5061881;28;20180;-80
2020/12/26 10:19:40;;;;;;;13.33;7.20;;;4.00;99.90;;;;;;5078805;28;20168;-80
2020/12/26 10:22:06;;;;;;;13.90;6.73;;;4.10;99.90;;;;;;5061003;28;20180;-80
2020/12/26 10:24:31;;;;;;;10.23;6.50;;;3.80;99.90;;;;;;5060788;28;20200;-79
2020/12/26 10:26:57;;;;;;;16.63;7.80;;;3.60;99.90;;;;;;5076349;28;20188;-80
2020/12/26 10:29:23;;;;;;;15.37;8.70;;;3.60;99.90;;;;;;5060097;28;20203;-79
2020/12/26 10:31:48;;;;;;;14.13;7.20;;;3.70;99.90;;;;;;5076595;28;20611;-79
2020/12/26 10:34:14;;;;;;;11.60;6.40;;;3.80;99.90;;;;;;5076916;28;20222;-79
2020/12/26 10:36:43;;;;;;;11.47;7.63;;;4.00;99.90;;;;;;5060481;28;20240;-80
2020/12/26 10:39:09;;;;;;;16.02;7.18;;;4.20;99.90;;;;;;5059122;28;20196;-79
2020/12/26 10:41:35;;;;;;;10.97;6.13;;;3.90;99.90;;;;;;5076730;28;20234;-80
2020/12/26 10:44:00;;;;;;;14.17;8.07;;;3.90;99.90;;;;;;5077830;28;20188;-81
2020/12/26 10:46:26;;;;;;;9.37;5.10;;;4.10;99.90;;;;;;5078597;28;20442;-79
2020/12/26 10:48:52;;;;;;;13.37;8.00;;;4.10;99.90;;;;;;5061226;28;20199;-80
2020/12/26 10:51:17;;;;;;;13.70;6.67;;;4.30;99.90;;;;;;5077774;28;20260;-80
2020/12/26 10:53:43;;;;;;;13.40;7.30;;;4.40;99.90;;;;;;5060000;28;20199;-79
2020/12/26 10:56:09;;;;;;;12.10;7.60;;;4.60;99.90;;;;;;5044140;28;20168;-79
2020/12/26 10:58:35;;;;;;;11.97;6.40;;;4.60;99.90;;;;;;5060031;28;20183;-81
2020/12/26 11:01:00;;;;;;;13.33;7.30;;;4.60;99.90;;;;;;5077238;28;20168;-79
2020/12/26 11:03:26;;;;;;;13.77;7.73;;;4.70;99.90;;;;;;5077253;28;20432;-79
2020/12/26 11:05:51;;;;;;;14.30;7.23;;;4.70;99.90;;;;;;5078612;28;20164;-80
2020/12/26 11:08:17;;;;;;;12.03;6.13;;;4.70;99.90;;;;;;5063896;28;20516;-81
2020/12/26 11:10:44;;;;;;;10.70;6.27;;;4.70;99.90;;;;;;5064433;28;20203;-80
2020/12/26 11:13:10;;;;;;;10.07;5.80;;;4.60;99.90;;;;;;5080909;28;20179;-79
2020/12/26 11:15:36;;;;;;;11.13;6.87;;;4.60;99.90;;;;;;5065134;28;20204;-79
2020/12/26 11:18:03;;;;;;;10.60;6.13;;;4.70;99.90;;;;;;5085759;28;20161;-79
2020/12/26 11:20:36;;;;;;;9.98;5.57;;;4.70;99.90;;;;;;5082312;28;20164;-80
2020/12/26 11:23:02;;;;;;;14.13;7.00;;;4.50;99.90;;;;;;5082569;28;20653;-79
2020/12/26 11:25:28;;;;;;;9.23;6.63;;;4.50;99.90;;;;;;5064581;28;20227;-79
2020/12/26 11:27:53;;;;;;;7.50;5.50;;;4.40;99.90;;;;;;5082821;28;20169;-80
2020/12/26 11:30:19;;;;;;;9.70;5.60;;;4.40;99.90;;;;;;5082394;28;20233;-80
2020/12/26 11:32:45;;;;;;;9.93;6.20;;;4.30;99.90;;;;;;5081776;28;20531;-80
2020/12/26 11:35:11;;;;;;;9.23;6.80;;;4.30;99.90;;;;;;5065238;28;20195;-79
2020/12/26 11:37:36;;;;;;;11.17;5.43;;;4.20;99.90;;;;;;5063458;28;20180;-79
2020/12/26 11:40:02;;;;;;;12.20;5.27;;;4.30;99.90;;;;;;5064661;28;20195;-79
2020/12/26 11:42:28;;;;;;;17.55;6.05;;;4.40;99.90;;;;;;5064397;28;20173;-79
2020/12/26 11:44:54;;;;;;;8.47;4.97;;;4.40;99.90;;;;;;5084652;28;20685;-81
2020/12/26 11:47:19;;;;;;;6.20;3.90;;;4.30;99.90;;;;;;5063166;28;20188;-79
2020/12/26 11:49:45;;;;;;;6.37;4.47;;;4.20;99.90;;;;;;5062884;28;20191;-80
2020/12/26 11:52:11;;;;;;;7.60;4.63;;;4.10;99.90;;;;;;5079818;28;20275;-79
2020/12/26 11:54:36;;;;;;;9.93;4.60;;;4.10;99.90;;;;;;5079789;28;20207;-80
2020/12/26 11:57:02;;;;;;;8.00;5.23;;;4.20;99.90;;;;;;5081915;28;20647;-80
2020/12/26 11:59:27;;;;;;;6.20;4.43;;;4.10;99.90;;;;;;5080922;28;20195;-81
2020/12/26 12:01:56;;;;;;;7.33;4.70;;;4.20;99.90;;;;;;5080962;28;20184;-79
2020/12/26 12:04:22;;;;;;;8.35;5.00;;;4.10;99.90;;;;;;5063697;28;20202;-81
2020/12/26 12:06:48;;;;;;;8.93;5.38;;;4.10;99.90;;;;;;5079665;28;20172;-80
2020/12/26 12:09:14;;;;;;;6.00;4.77;;;4.20;99.90;;;;;;5082249;28;20717;-79
2020/12/26 12:11:40;;;;;;;4.90;4.20;;;4.20;99.90;;;;;;5062716;28;20450;-79
2020/12/26 12:14:05;;;;;;;10.27;5.40;;;4.10;99.90;;;;;;5081492;28;20199;-79
2020/12/26 12:16:31;;;;;;;8.10;5.03;;;4.10;99.90;;;;;;5080405;28;20200;-79
2020/12/26 12:18:57;;;;;;;6.37;4.20;;;4.20;99.90;;;;;;5060497;28;20172;-80
2020/12/26 12:21:22;;;;;;;10.30;4.43;;;4.30;99.90;;;;;;5077305;28;20506;-80
2020/12/26 12:23:48;;;;;;;8.70;4.33;;;4.40;99.90;;;;;;5077055;28;20204;-80
2020/12/26 12:26:24;;;;;;;6.70;3.90;;;4.40;99.90;;;;;;5044137;28;20830;-79
2020/12/26 12:28:54;;;;;;;9.32;4.68;;;4.40;99.90;;;;;;5077005;28;20258;-79
2020/12/26 12:31:24;;;;;;;6.50;4.55;;;4.40;99.90;;;;;;5078380;28;20199;-79
2020/12/26 12:33:51;;;;;;;6.47;4.18;;;4.50;99.90;;;;;;5060452;28;20662;-79
2020/12/26 12:36:17;;;;;;;7.25;4.50;;;4.60;99.90;;;;;;5078706;28;20164;-80
2020/12/26 12:38:43;;;;;;;6.22;4.35;;;4.60;99.90;;;;;;5078215;28;20176;-79
2020/12/26 12:41:09;;;;;;;8.47;5.00;;;4.70;99.90;;;;;;5079334;28;20176;-81
2020/12/26 12:43:35;;;;;;;10.40;4.70;;;4.80;99.90;;;;;;5081313;28;20172;-80
2020/12/26 12:46:35;;;;;;;5.05;4.30;;;4.70;99.90;;;;;;5078343;28;20172;-82
2020/12/26 12:49:01;;;;;;;6.10;4.20;;;4.70;99.90;;;;;;5073592;28;20192;-79
2020/12/26 12:51:27;;;;;;;6.20;4.20;;;4.70;99.90;;;;;;5044103;28;20214;-78
2020/12/26 12:53:53;;;;;;;11.43;5.57;;;4.70;99.90;;;;;;5078524;28;20188;-79
2020/12/26 12:56:19;;;;;;;15.27;6.03;;;4.70;99.90;;;;;;5078024;28;20168;-80
2020/12/26 12:58:47;;;;;;;8.10;5.03;;;4.70;99.90;;;;;;5077737;28;20183;-79
2020/12/26 13:01:13;;;;;;;10.55;5.80;;;4.70;99.90;;;;;;5077306;28;20168;-80
2020/12/26 13:03:38;;;;;;;7.13;4.67;;;4.80;99.90;;;;;;5058559;28;20202;-79